This is the latest recevied weather packets stored in our database for station/object W5ALL-WX. If no packets are shown the sender has not sent any weather packets the latest 10 day(s).
| Time | Temp. | Humidity | Pressure | Rain* | Wind** | Luminosity | Snow |
|---|---|---|---|---|---|---|---|
| 1778091429 | 22.22° C | 15% | 1015.2 hPa | 0 mm | - | - | - |
| 1778091129 | 22.22° C | 14% | 1015.3 hPa | 0 mm | - | - | - |
| 1778090829 | 21.67° C | 15% | 1015.2 hPa | 0 mm | - | - | - |
| 1778090229 | 21.67° C | 15% | 1015.3 hPa | 0 mm | - | - | - |
| 1778089629 | 21.67° C | 19% | 1015.2 hPa | 0 mm | - | - | - |
| 1778089029 | 21.67° C | 18% | 1015.2 hPa | 0 mm | - | - | - |
| 1778088729 | 21.67° C | 17% | 1015.2 hPa | 0 mm | - | - | - |
| 1778088429 | 21.67° C | 18% | 1015.3 hPa | 0 mm | - | - | - |
| 1778087829 | 21.67° C | 18% | 1015.3 hPa | 0 mm | - | - | - |
| 1778087529 | 21.11° C | 19% | 1015.2 hPa | 0 mm | - | - | - |
| 1778086029 | 20° C | 22% | 1015 hPa | 0 mm | - | - | - |
| 1778085729 | 20° C | 21% | 1015.2 hPa | 0 mm | - | - | - |
| 1778085429 | 20° C | 21% | 1015.2 hPa | 0 mm | - | - | - |
| 1778084829 | 20° C | 22% | 1015 hPa | 0 mm | - | - | - |
| 1778072828 | 13.89° C | 46% | 1014.8 hPa | 0 mm | - | - | - |
| 1778072528 | 13.33° C | 47% | 1014.8 hPa | 0 mm | - | - | - |
| 1778071028 | 13.33° C | 46% | 1014.6 hPa | 0 mm | - | - | - |
| 1778069528 | 12.78° C | 48% | 1014.2 hPa | 0 mm | - | - | - |
| 1778067428 | 13.89° C | 45% | 1013.9 hPa | 0 mm | - | - | - |
| 1778063948 | 15° C | 42% | 1013.6 hPa | 0 mm | - | - | - |
| 1778061732 | 16.11° C | 40% | 1013.3 hPa | 0 mm | - | - | - |
| 1778060232 | 15° C | 42% | 1013.2 hPa | 0 mm | - | - | - |
| 1778059632 | 15.56° C | 41% | 1013.1 hPa | 0 mm | - | - | - |
| 1778058432 | 16.11° C | 39% | 1012.9 hPa | 0 mm | - | - | - |
| 1778057832 | 16.67° C | 38% | 1012.9 hPa | 0 mm | - | - | - |
* Rain latest hour (hover to see other rain measurements)
** Current wind speed in m/s (hover to see current wind gust speed)